sensor_id;sensor_type;location;lat;lon;timestamp;P1;durP1;ratioP1;P2;durP2;ratioP2
5428;SDS011;2737;52.386;9.980;2023-05-23T00:02:00;20.57;;;15.70;;
5428;SDS011;2737;52.386;9.980;2023-05-23T00:04:32;20.90;;;15.53;;
5428;SDS011;2737;52.386;9.980;2023-05-23T00:07:02;19.87;;;15.53;;
5428;SDS011;2737;52.386;9.980;2023-05-23T00:09:29;21.73;;;15.97;;
5428;SDS011;2737;52.386;9.980;2023-05-23T00:11:56;21.13;;;15.53;;
5428;SDS011;2737;52.386;9.980;2023-05-23T00:14:23;20.80;;;15.67;;
5428;SDS011;2737;52.386;9.980;2023-05-23T00:16:51;22.03;;;15.30;;
5428;SDS011;2737;52.386;9.980;2023-05-23T00:19:19;23.37;;;17.63;;
5428;SDS011;2737;52.386;9.980;2023-05-23T00:21:46;21.23;;;16.60;;
5428;SDS011;2737;52.386;9.980;2023-05-23T00:24:16;23.47;;;17.17;;
5428;SDS011;2737;52.386;9.980;2023-05-23T00:26:44;24.60;;;16.77;;
5428;SDS011;2737;52.386;9.980;2023-05-23T00:29:11;26.53;;;17.63;;
5428;SDS011;2737;52.386;9.980;2023-05-23T00:31:40;26.87;;;18.30;;
5428;SDS011;2737;52.386;9.980;2023-05-23T00:34:10;25.50;;;17.87;;
5428;SDS011;2737;52.386;9.980;2023-05-23T00:36:37;24.70;;;18.60;;
5428;SDS011;2737;52.386;9.980;2023-05-23T00:39:05;27.20;;;19.03;;
5428;SDS011;2737;52.386;9.980;2023-05-23T00:41:34;25.53;;;18.73;;
5428;SDS011;2737;52.386;9.980;2023-05-23T00:44:01;27.20;;;19.60;;
5428;SDS011;2737;52.386;9.980;2023-05-23T00:46:30;28.07;;;19.50;;
5428;SDS011;2737;52.386;9.980;2023-05-23T00:48:57;28.43;;;19.90;;
5428;SDS011;2737;52.386;9.980;2023-05-23T00:51:24;26.90;;;18.67;;
5428;SDS011;2737;52.386;9.980;2023-05-23T00:53:52;27.03;;;19.07;;
5428;SDS011;2737;52.386;9.980;2023-05-23T00:56:20;29.47;;;20.50;;
5428;SDS011;2737;52.386;9.980;2023-05-23T00:58:48;25.50;;;20.30;;
5428;SDS011;2737;52.386;9.980;2023-05-23T01:01:15;30.73;;;21.50;;
5428;SDS011;2737;52.386;9.980;2023-05-23T01:03:43;28.50;;;21.17;;
5428;SDS011;2737;52.386;9.980;2023-05-23T01:06:12;31.67;;;21.50;;
5428;SDS011;2737;52.386;9.980;2023-05-23T01:08:39;28.63;;;20.50;;
5428;SDS011;2737;52.386;9.980;2023-05-23T01:11:12;28.50;;;20.10;;
5428;SDS011;2737;52.386;9.980;2023-05-23T01:13:50;33.97;;;20.70;;
5428;SDS011;2737;52.386;9.980;2023-05-23T01:16:26;30.63;;;22.40;;
5428;SDS011;2737;52.386;9.980;2023-05-23T01:19:03;33.87;;;23.50;;
5428;SDS011;2737;52.386;9.980;2023-05-23T01:21:40;32.53;;;24.77;;
5428;SDS011;2737;52.386;9.980;2023-05-23T01:24:21;40.67;;;26.87;;
5428;SDS011;2737;52.386;9.980;2023-05-23T01:27:04;44.73;;;31.37;;
5428;SDS011;2737;52.386;9.980;2023-05-23T01:29:41;56.57;;;33.27;;
5428;SDS011;2737;52.386;9.980;2023-05-23T01:32:11;57.23;;;37.10;;
5428;SDS011;2737;52.386;9.980;2023-05-23T01:34:39;74.40;;;42.67;;
5428;SDS011;2737;52.386;9.980;2023-05-23T01:37:08;73.87;;;43.77;;
5428;SDS011;2737;52.386;9.980;2023-05-23T01:39:36;85.27;;;48.17;;
5428;SDS011;2737;52.386;9.980;2023-05-23T01:42:03;83.33;;;47.10;;
5428;SDS011;2737;52.386;9.980;2023-05-23T01:44:31;87.70;;;49.80;;
5428;SDS011;2737;52.386;9.980;2023-05-23T01:47:01;88.73;;;49.80;;
5428;SDS011;2737;52.386;9.980;2023-05-23T01:49:29;81.40;;;48.40;;
5428;SDS011;2737;52.386;9.980;2023-05-23T01:51:59;91.83;;;51.47;;
5428;SDS011;2737;52.386;9.980;2023-05-23T01:54:26;90.93;;;51.10;;
5428;SDS011;2737;52.386;9.980;2023-05-23T01:56:55;91.73;;;50.87;;
5428;SDS011;2737;52.386;9.980;2023-05-23T01:59:23;81.70;;;49.43;;
5428;SDS011;2737;52.386;9.980;2023-05-23T02:01:50;85.63;;;48.63;;
5428;SDS011;2737;52.386;9.980;2023-05-23T02:04:19;86.10;;;51.27;;
5428;SDS011;2737;52.386;9.980;2023-05-23T02:06:47;76.30;;;47.50;;
5428;SDS011;2737;52.386;9.980;2023-05-23T02:09:14;79.77;;;46.40;;
5428;SDS011;2737;52.386;9.980;2023-05-23T02:11:41;70.40;;;43.27;;
5428;SDS011;2737;52.386;9.980;2023-05-23T02:14:08;69.17;;;41.50;;
5428;SDS011;2737;52.386;9.980;2023-05-23T02:16:36;62.30;;;39.80;;
5428;SDS011;2737;52.386;9.980;2023-05-23T02:19:03;54.67;;;37.20;;
5428;SDS011;2737;52.386;9.980;2023-05-23T02:21:32;61.00;;;35.60;;
5428;SDS011;2737;52.386;9.980;2023-05-23T02:23:59;54.13;;;34.33;;
5428;SDS011;2737;52.386;9.980;2023-05-23T02:26:26;50.53;;;32.60;;
5428;SDS011;2737;52.386;9.980;2023-05-23T02:28:53;47.43;;;31.43;;
5428;SDS011;2737;52.386;9.980;2023-05-23T02:31:20;48.13;;;33.60;;
5428;SDS011;2737;52.386;9.980;2023-05-23T02:33:47;54.37;;;32.37;;
5428;SDS011;2737;52.386;9.980;2023-05-23T02:36:14;44.07;;;29.97;;
5428;SDS011;2737;52.386;9.980;2023-05-23T02:38:42;49.00;;;30.03;;
5428;SDS011;2737;52.386;9.980;2023-05-23T02:41:09;45.30;;;28.60;;
5428;SDS011;2737;52.386;9.980;2023-05-23T02:43:36;43.60;;;29.10;;
5428;SDS011;2737;52.386;9.980;2023-05-23T02:46:04;45.50;;;28.67;;
5428;SDS011;2737;52.386;9.980;2023-05-23T02:48:31;49.07;;;27.83;;
5428;SDS011;2737;52.386;9.980;2023-05-23T02:50:58;39.57;;;26.43;;
5428;SDS011;2737;52.386;9.980;2023-05-23T02:53:25;42.93;;;26.67;;
5428;SDS011;2737;52.386;9.980;2023-05-23T02:55:53;40.83;;;27.23;;
5428;SDS011;2737;52.386;9.980;2023-05-23T02:58:20;38.07;;;25.40;;
5428;SDS011;2737;52.386;9.980;2023-05-23T03:00:48;33.63;;;23.10;;
5428;SDS011;2737;52.386;9.980;2023-05-23T03:03:15;37.20;;;24.00;;
5428;SDS011;2737;52.386;9.980;2023-05-23T03:05:42;48.07;;;26.90;;
5428;SDS011;2737;52.386;9.980;2023-05-23T03:08:09;38.90;;;25.17;;
5428;SDS011;2737;52.386;9.980;2023-05-23T03:10:36;38.93;;;24.07;;
5428;SDS011;2737;52.386;9.980;2023-05-23T03:13:04;42.77;;;25.60;;
5428;SDS011;2737;52.386;9.980;2023-05-23T03:15:32;39.60;;;23.70;;
5428;SDS011;2737;52.386;9.980;2023-05-23T03:17:59;44.50;;;23.40;;
5428;SDS011;2737;52.386;9.980;2023-05-23T03:20:26;40.03;;;24.47;;
5428;SDS011;2737;52.386;9.980;2023-05-23T03:22:53;37.80;;;24.17;;
5428;SDS011;2737;52.386;9.980;2023-05-23T03:25:20;30.67;;;21.40;;
5428;SDS011;2737;52.386;9.980;2023-05-23T03:27:47;31.50;;;22.53;;
5428;SDS011;2737;52.386;9.980;2023-05-23T03:30:15;35.00;;;22.33;;
5428;SDS011;2737;52.386;9.980;2023-05-23T03:32:42;38.43;;;22.10;;
5428;SDS011;2737;52.386;9.980;2023-05-23T03:35:10;36.03;;;22.20;;
5428;SDS011;2737;52.386;9.980;2023-05-23T03:37:37;35.90;;;20.20;;
5428;SDS011;2737;52.386;9.980;2023-05-23T03:40:05;37.83;;;22.60;;
5428;SDS011;2737;52.386;9.980;2023-05-23T03:42:33;36.87;;;23.00;;
5428;SDS011;2737;52.386;9.980;2023-05-23T03:45:01;35.10;;;21.70;;
5428;SDS011;2737;52.386;9.980;2023-05-23T03:47:30;35.83;;;22.87;;
5428;SDS011;2737;52.386;9.980;2023-05-23T03:49:57;36.43;;;23.23;;
5428;SDS011;2737;52.386;9.980;2023-05-23T03:52:24;35.20;;;23.23;;
5428;SDS011;2737;52.386;9.980;2023-05-23T03:54:51;40.50;;;23.10;;
5428;SDS011;2737;52.386;9.980;2023-05-23T03:57:18;43.03;;;22.30;;
5428;SDS011;2737;52.386;9.980;2023-05-23T03:59:45;29.90;;;21.37;;
5428;SDS011;2737;52.386;9.980;2023-05-23T04:02:12;32.70;;;21.70;;
5428;SDS011;2737;52.386;9.980;2023-05-23T04:04:40;34.50;;;20.60;;
5428;SDS011;2737;52.386;9.980;2023-05-23T04:07:07;34.27;;;20.67;;
5428;SDS011;2737;52.386;9.980;2023-05-23T04:09:35;26.93;;;20.00;;
5428;SDS011;2737;52.386;9.980;2023-05-23T04:12:02;33.23;;;21.10;;
5428;SDS011;2737;52.386;9.980;2023-05-23T04:14:30;32.80;;;22.40;;
5428;SDS011;2737;52.386;9.980;2023-05-23T04:16:57;29.30;;;21.17;;
5428;SDS011;2737;52.386;9.980;2023-05-23T04:19:25;34.40;;;23.53;;
5428;SDS011;2737;52.386;9.980;2023-05-23T04:21:53;33.10;;;21.63;;
5428;SDS011;2737;52.386;9.980;2023-05-23T04:24:20;33.80;;;23.20;;
5428;SDS011;2737;52.386;9.980;2023-05-23T04:26:47;33.63;;;23.30;;
5428;SDS011;2737;52.386;9.980;2023-05-23T04:29:14;32.60;;;22.90;;
5428;SDS011;2737;52.386;9.980;2023-05-23T04:31:41;36.93;;;22.93;;
5428;SDS011;2737;52.386;9.980;2023-05-23T04:34:10;29.60;;;20.53;;
5428;SDS011;2737;52.386;9.980;2023-05-23T04:36:36;31.03;;;20.33;;
5428;SDS011;2737;52.386;9.980;2023-05-23T04:39:05;29.00;;;19.07;;
5428;SDS011;2737;52.386;9.980;2023-05-23T04:41:33;29.20;;;19.90;;
5428;SDS011;2737;52.386;9.980;2023-05-23T04:44:00;30.30;;;18.87;;
5428;SDS011;2737;52.386;9.980;2023-05-23T04:46:27;23.57;;;17.23;;
5428;SDS011;2737;52.386;9.980;2023-05-23T04:48:54;28.83;;;18.33;;
5428;SDS011;2737;52.386;9.980;2023-05-23T04:51:22;24.73;;;17.13;;
5428;SDS011;2737;52.386;9.980;2023-05-23T04:53:49;24.43;;;16.83;;
5428;SDS011;2737;52.386;9.980;2023-05-23T04:56:18;25.53;;;16.73;;
5428;SDS011;2737;52.386;9.980;2023-05-23T04:58:46;20.60;;;14.70;;
5428;SDS011;2737;52.386;9.980;2023-05-23T05:01:13;25.00;;;16.03;;
5428;SDS011;2737;52.386;9.980;2023-05-23T05:03:40;21.27;;;15.00;;
5428;SDS011;2737;52.386;9.980;2023-05-23T05:06:07;21.73;;;14.83;;
5428;SDS011;2737;52.386;9.980;2023-05-23T05:08:34;25.07;;;14.77;;
5428;SDS011;2737;52.386;9.980;2023-05-23T05:11:01;18.63;;;13.87;;
5428;SDS011;2737;52.386;9.980;2023-05-23T05:13:30;24.93;;;15.50;;
5428;SDS011;2737;52.386;9.980;2023-05-23T05:15:57;22.90;;;14.20;;
5428;SDS011;2737;52.386;9.980;2023-05-23T05:18:25;22.07;;;14.90;;
5428;SDS011;2737;52.386;9.980;2023-05-23T05:20:52;22.60;;;14.70;;
5428;SDS011;2737;52.386;9.980;2023-05-23T05:23:20;21.33;;;13.20;;
5428;SDS011;2737;52.386;9.980;2023-05-23T05:25:52;22.87;;;13.67;;
5428;SDS011;2737;52.386;9.980;2023-05-23T05:28:20;21.40;;;13.67;;
5428;SDS011;2737;52.386;9.980;2023-05-23T05:30:48;19.97;;;11.83;;
5428;SDS011;2737;52.386;9.980;2023-05-23T05:33:18;23.20;;;13.80;;
5428;SDS011;2737;52.386;9.980;2023-05-23T05:35:47;21.33;;;14.10;;
5428;SDS011;2737;52.386;9.980;2023-05-23T05:38:15;21.30;;;13.93;;
5428;SDS011;2737;52.386;9.980;2023-05-23T05:40:42;22.80;;;13.70;;
5428;SDS011;2737;52.386;9.980;2023-05-23T05:43:09;21.90;;;13.93;;
5428;SDS011;2737;52.386;9.980;2023-05-23T05:45:36;22.50;;;14.87;;
5428;SDS011;2737;52.386;9.980;2023-05-23T05:48:05;22.80;;;14.43;;
5428;SDS011;2737;52.386;9.980;2023-05-23T05:50:33;24.47;;;14.10;;
5428;SDS011;2737;52.386;9.980;2023-05-23T05:52:59;26.07;;;15.43;;
5428;SDS011;2737;52.386;9.980;2023-05-23T05:55:27;24.47;;;14.57;;
5428;SDS011;2737;52.386;9.980;2023-05-23T05:57:54;20.27;;;13.73;;
5428;SDS011;2737;52.386;9.980;2023-05-23T06:00:21;29.07;;;14.03;;
5428;SDS011;2737;52.386;9.980;2023-05-23T06:02:49;24.47;;;14.13;;
5428;SDS011;2737;52.386;9.980;2023-05-23T06:05:19;18.37;;;13.70;;
5428;SDS011;2737;52.386;9.980;2023-05-23T06:07:47;19.17;;;12.73;;
5428;SDS011;2737;52.386;9.980;2023-05-23T06:10:15;27.47;;;12.93;;
5428;SDS011;2737;52.386;9.980;2023-05-23T06:12:43;18.70;;;11.93;;
5428;SDS011;2737;52.386;9.980;2023-05-23T06:15:10;16.63;;;12.00;;
5428;SDS011;2737;52.386;9.980;2023-05-23T06:17:38;17.73;;;11.73;;
5428;SDS011;2737;52.386;9.980;2023-05-23T06:20:06;15.37;;;12.07;;
5428;SDS011;2737;52.386;9.980;2023-05-23T06:22:34;18.03;;;13.07;;
5428;SDS011;2737;52.386;9.980;2023-05-23T06:25:02;18.37;;;13.27;;
5428;SDS011;2737;52.386;9.980;2023-05-23T06:27:29;18.70;;;11.40;;
5428;SDS011;2737;52.386;9.980;2023-05-23T06:29:56;17.97;;;11.90;;
5428;SDS011;2737;52.386;9.980;2023-05-23T06:32:23;16.70;;;11.73;;
5428;SDS011;2737;52.386;9.980;2023-05-23T06:34:50;16.20;;;12.10;;
5428;SDS011;2737;52.386;9.980;2023-05-23T06:37:17;16.47;;;12.27;;
5428;SDS011;2737;52.386;9.980;2023-05-23T06:39:45;16.20;;;12.30;;
5428;SDS011;2737;52.386;9.980;2023-05-23T06:42:13;17.57;;;12.50;;
5428;SDS011;2737;52.386;9.980;2023-05-23T06:44:40;15.27;;;11.90;;
5428;SDS011;2737;52.386;9.980;2023-05-23T06:47:07;17.90;;;12.77;;
5428;SDS011;2737;52.386;9.980;2023-05-23T06:49:34;19.40;;;13.87;;
5428;SDS011;2737;52.386;9.980;2023-05-23T06:52:01;17.47;;;13.30;;
5428;SDS011;2737;52.386;9.980;2023-05-23T06:54:28;16.57;;;12.90;;
5428;SDS011;2737;52.386;9.980;2023-05-23T06:56:56;17.70;;;12.37;;
5428;SDS011;2737;52.386;9.980;2023-05-23T06:59:24;20.50;;;14.77;;
5428;SDS011;2737;52.386;9.980;2023-05-23T07:01:51;20.90;;;13.07;;
5428;SDS011;2737;52.386;9.980;2023-05-23T07:04:18;16.80;;;12.37;;
5428;SDS011;2737;52.386;9.980;2023-05-23T07:06:45;17.13;;;12.27;;
5428;SDS011;2737;52.386;9.980;2023-05-23T07:09:11;15.00;;;10.67;;
5428;SDS011;2737;52.386;9.980;2023-05-23T07:11:38;14.13;;;10.93;;
5428;SDS011;2737;52.386;9.980;2023-05-23T07:14:07;16.57;;;11.47;;
5428;SDS011;2737;52.386;9.980;2023-05-23T07:16:34;16.50;;;11.07;;
5428;SDS011;2737;52.386;9.980;2023-05-23T07:19:01;17.07;;;12.33;;
5428;SDS011;2737;52.386;9.980;2023-05-23T07:21:29;18.00;;;10.73;;
5428;SDS011;2737;52.386;9.980;2023-05-23T07:23:56;18.03;;;11.00;;
5428;SDS011;2737;52.386;9.980;2023-05-23T07:26:23;15.60;;;9.37;;
5428;SDS011;2737;52.386;9.980;2023-05-23T07:28:51;11.13;;;8.10;;
5428;SDS011;2737;52.386;9.980;2023-05-23T07:31:19;13.43;;;8.20;;
5428;SDS011;2737;52.386;9.980;2023-05-23T07:33:46;11.00;;;7.67;;
5428;SDS011;2737;52.386;9.980;2023-05-23T07:36:13;8.30;;;6.63;;
5428;SDS011;2737;52.386;9.980;2023-05-23T07:38:42;8.90;;;7.03;;
5428;SDS011;2737;52.386;9.980;2023-05-23T07:41:09;8.20;;;6.17;;
5428;SDS011;2737;52.386;9.980;2023-05-23T07:43:36;6.67;;;6.03;;
5428;SDS011;2737;52.386;9.980;2023-05-23T07:46:03;9.13;;;6.60;;
5428;SDS011;2737;52.386;9.980;2023-05-23T07:48:31;8.10;;;6.53;;
5428;SDS011;2737;52.386;9.980;2023-05-23T07:50:58;12.50;;;6.67;;
5428;SDS011;2737;52.386;9.980;2023-05-23T07:53:25;7.40;;;6.30;;
5428;SDS011;2737;52.386;9.980;2023-05-23T07:55:52;12.13;;;8.17;;
5428;SDS011;2737;52.386;9.980;2023-05-23T07:58:19;11.57;;;8.60;;
5428;SDS011;2737;52.386;9.980;2023-05-23T08:00:47;12.90;;;9.23;;
5428;SDS011;2737;52.386;9.980;2023-05-23T08:03:14;14.07;;;9.27;;
5428;SDS011;2737;52.386;9.980;2023-05-23T08:05:44;16.40;;;10.77;;
5428;SDS011;2737;52.386;9.980;2023-05-23T08:08:12;19.97;;;13.30;;
5428;SDS011;2737;52.386;9.980;2023-05-23T08:10:39;21.10;;;13.67;;
5428;SDS011;2737;52.386;9.980;2023-05-23T08:13:07;20.10;;;14.63;;
5428;SDS011;2737;52.386;9.980;2023-05-23T08:15:35;22.90;;;15.70;;
5428;SDS011;2737;52.386;9.980;2023-05-23T08:18:02;21.90;;;15.43;;
5428;SDS011;2737;52.386;9.980;2023-05-23T08:20:29;23.10;;;15.00;;
5428;SDS011;2737;52.386;9.980;2023-05-23T08:22:58;20.97;;;14.00;;
5428;SDS011;2737;52.386;9.980;2023-05-23T08:25:26;22.50;;;15.60;;
5428;SDS011;2737;52.386;9.980;2023-05-23T08:27:55;21.43;;;14.43;;
5428;SDS011;2737;52.386;9.980;2023-05-23T08:30:22;26.10;;;15.50;;
5428;SDS011;2737;52.386;9.980;2023-05-23T08:32:50;28.93;;;15.00;;
5428;SDS011;2737;52.386;9.980;2023-05-23T08:35:18;24.77;;;14.10;;
5428;SDS011;2737;52.386;9.980;2023-05-23T08:37:45;19.93;;;14.27;;
5428;SDS011;2737;52.386;9.980;2023-05-23T08:40:17;29.60;;;16.40;;
5428;SDS011;2737;52.386;9.980;2023-05-23T08:42:45;27.70;;;16.23;;
5428;SDS011;2737;52.386;9.980;2023-05-23T08:45:13;29.03;;;15.80;;
5428;SDS011;2737;52.386;9.980;2023-05-23T08:47:41;33.50;;;14.93;;
5428;SDS011;2737;52.386;9.980;2023-05-23T08:50:10;25.77;;;15.60;;
5428;SDS011;2737;52.386;9.980;2023-05-23T08:52:41;26.73;;;15.07;;
5428;SDS011;2737;52.386;9.980;2023-05-23T08:55:11;26.17;;;15.70;;
5428;SDS011;2737;52.386;9.980;2023-05-23T08:57:39;30.77;;;15.17;;
5428;SDS011;2737;52.386;9.980;2023-05-23T09:00:08;22.60;;;15.83;;
5428;SDS011;2737;52.386;9.980;2023-05-23T09:02:39;28.10;;;14.63;;
5428;SDS011;2737;52.386;9.980;2023-05-23T09:05:08;26.97;;;16.40;;
5428;SDS011;2737;52.386;9.980;2023-05-23T09:07:35;24.73;;;15.33;;
5428;SDS011;2737;52.386;9.980;2023-05-23T09:10:03;32.33;;;17.30;;
5428;SDS011;2737;52.386;9.980;2023-05-23T09:12:32;29.63;;;16.87;;
5428;SDS011;2737;52.386;9.980;2023-05-23T09:15:02;31.33;;;16.50;;
5428;SDS011;2737;52.386;9.980;2023-05-23T09:17:30;39.80;;;17.30;;
5428;SDS011;2737;52.386;9.980;2023-05-23T09:19:57;33.77;;;17.30;;
5428;SDS011;2737;52.386;9.980;2023-05-23T09:22:24;37.93;;;16.60;;
5428;SDS011;2737;52.386;9.980;2023-05-23T09:24:52;29.67;;;16.73;;
5428;SDS011;2737;52.386;9.980;2023-05-23T09:27:20;31.10;;;14.90;;
5428;SDS011;2737;52.386;9.980;2023-05-23T09:29:47;30.20;;;14.93;;
5428;SDS011;2737;52.386;9.980;2023-05-23T09:32:16;31.80;;;13.13;;
5428;SDS011;2737;52.386;9.980;2023-05-23T09:34:56;20.30;;;12.07;;
5428;SDS011;2737;52.386;9.980;2023-05-23T09:37:28;28.50;;;13.33;;
5428;SDS011;2737;52.386;9.980;2023-05-23T09:39:57;20.37;;;11.57;;
5428;SDS011;2737;52.386;9.980;2023-05-23T09:42:24;16.87;;;11.27;;
5428;SDS011;2737;52.386;9.980;2023-05-23T09:44:57;26.00;;;12.77;;
5428;SDS011;2737;52.386;9.980;2023-05-23T09:47:25;27.63;;;12.87;;
5428;SDS011;2737;52.386;9.980;2023-05-23T09:49:52;24.87;;;14.40;;
5428;SDS011;2737;52.386;9.980;2023-05-23T09:52:19;20.77;;;12.83;;
5428;SDS011;2737;52.386;9.980;2023-05-23T09:54:47;18.47;;;11.63;;
5428;SDS011;2737;52.386;9.980;2023-05-23T09:57:14;21.37;;;11.33;;
5428;SDS011;2737;52.386;9.980;2023-05-23T09:59:44;25.90;;;11.30;;
5428;SDS011;2737;52.386;9.980;2023-05-23T10:02:17;15.83;;;10.10;;
5428;SDS011;2737;52.386;9.980;2023-05-23T10:05:02;24.00;;;10.57;;
5428;SDS011;2737;52.386;9.980;2023-05-23T10:07:32;28.80;;;10.10;;
5428;SDS011;2737;52.386;9.980;2023-05-23T10:10:02;20.70;;;8.80;;
5428;SDS011;2737;52.386;9.980;2023-05-23T10:12:37;17.13;;;8.50;;
5428;SDS011;2737;52.386;9.980;2023-05-23T10:15:08;12.40;;;6.90;;
5428;SDS011;2737;52.386;9.980;2023-05-23T10:17:43;20.90;;;7.30;;
5428;SDS011;2737;52.386;9.980;2023-05-23T10:20:24;13.40;;;6.70;;
5428;SDS011;2737;52.386;9.980;2023-05-23T10:22:57;10.20;;;5.30;;
5428;SDS011;2737;52.386;9.980;2023-05-23T10:25:25;23.40;;;6.43;;
5428;SDS011;2737;52.386;9.980;2023-05-23T10:27:54;6.80;;;4.90;;
5428;SDS011;2737;52.386;9.980;2023-05-23T10:30:24;7.67;;;4.83;;
5428;SDS011;2737;52.386;9.980;2023-05-23T10:32:53;18.97;;;4.43;;
5428;SDS011;2737;52.386;9.980;2023-05-23T10:35:22;8.23;;;4.30;;
5428;SDS011;2737;52.386;9.980;2023-05-23T10:37:58;8.10;;;4.40;;
5428;SDS011;2737;52.386;9.980;2023-05-23T10:40:35;8.87;;;4.30;;
5428;SDS011;2737;52.386;9.980;2023-05-23T10:43:13;9.80;;;4.00;;
5428;SDS011;2737;52.386;9.980;2023-05-23T10:45:46;8.50;;;4.10;;
5428;SDS011;2737;52.386;9.980;2023-05-23T10:48:22;9.17;;;3.83;;
5428;SDS011;2737;52.386;9.980;2023-05-23T10:51:02;5.60;;;3.87;;
5428;SDS011;2737;52.386;9.980;2023-05-23T10:53:31;6.37;;;3.60;;
5428;SDS011;2737;52.386;9.980;2023-05-23T10:56:00;3.90;;;3.20;;
5428;SDS011;2737;52.386;9.980;2023-05-23T10:58:30;5.33;;;3.07;;
5428;SDS011;2737;52.386;9.980;2023-05-23T11:00:59;5.83;;;3.40;;
5428;SDS011;2737;52.386;9.980;2023-05-23T11:03:32;7.13;;;3.67;;
5428;SDS011;2737;52.386;9.980;2023-05-23T11:06:01;7.43;;;4.27;;
5428;SDS011;2737;52.386;9.980;2023-05-23T11:08:35;9.30;;;3.70;;
5428;SDS011;2737;52.386;9.980;2023-05-23T11:11:04;10.10;;;3.93;;
5428;SDS011;2737;52.386;9.980;2023-05-23T11:13:53;13.50;;;3.90;;
5428;SDS011;2737;52.386;9.980;2023-05-23T11:16:24;25.90;;;5.73;;
5428;SDS011;2737;52.386;9.980;2023-05-23T11:21:52;17.77;;;5.53;;
5428;SDS011;2737;52.386;9.980;2023-05-23T11:24:21;9.57;;;4.03;;
5428;SDS011;2737;52.386;9.980;2023-05-23T11:26:51;10.07;;;4.23;;
5428;SDS011;2737;52.386;9.980;2023-05-23T11:29:21;13.20;;;4.73;;
5428;SDS011;2737;52.386;9.980;2023-05-23T11:31:48;13.07;;;4.30;;
5428;SDS011;2737;52.386;9.980;2023-05-23T11:34:16;13.23;;;4.20;;
5428;SDS011;2737;52.386;9.980;2023-05-23T11:36:45;13.03;;;4.77;;
5428;SDS011;2737;52.386;9.980;2023-05-23T11:39:12;18.60;;;5.00;;
5428;SDS011;2737;52.386;9.980;2023-05-23T11:41:40;13.63;;;5.40;;
5428;SDS011;2737;52.386;9.980;2023-05-23T11:44:10;13.70;;;5.17;;
5428;SDS011;2737;52.386;9.980;2023-05-23T11:46:38;20.10;;;5.60;;
5428;SDS011;2737;52.386;9.980;2023-05-23T11:49:11;15.00;;;5.20;;
5428;SDS011;2737;52.386;9.980;2023-05-23T11:51:38;18.97;;;5.10;;
5428;SDS011;2737;52.386;9.980;2023-05-23T11:54:07;20.60;;;4.80;;
5428;SDS011;2737;52.386;9.980;2023-05-23T11:56:40;15.80;;;5.17;;
5428;SDS011;2737;52.386;9.980;2023-05-23T11:59:07;14.73;;;4.73;;
5428;SDS011;2737;52.386;9.980;2023-05-23T12:01:35;23.17;;;6.53;;
5428;SDS011;2737;52.386;9.980;2023-05-23T12:04:07;13.90;;;6.50;;
5428;SDS011;2737;52.386;9.980;2023-05-23T12:06:37;17.60;;;6.03;;
5428;SDS011;2737;52.386;9.980;2023-05-23T12:09:05;20.20;;;5.77;;
5428;SDS011;2737;52.386;9.980;2023-05-23T12:11:33;17.37;;;4.97;;
5428;SDS011;2737;52.386;9.980;2023-05-23T12:14:01;15.63;;;5.10;;
5428;SDS011;2737;52.386;9.980;2023-05-23T12:16:30;13.30;;;4.27;;
5428;SDS011;2737;52.386;9.980;2023-05-23T12:18:57;19.20;;;4.53;;
5428;SDS011;2737;52.386;9.980;2023-05-23T12:21:25;15.33;;;4.53;;
5428;SDS011;2737;52.386;9.980;2023-05-23T12:23:52;13.67;;;4.90;;
5428;SDS011;2737;52.386;9.980;2023-05-23T12:26:21;16.93;;;4.50;;
5428;SDS011;2737;52.386;9.980;2023-05-23T12:28:48;19.57;;;4.80;;
5428;SDS011;2737;52.386;9.980;2023-05-23T12:31:16;16.80;;;4.27;;
5428;SDS011;2737;52.386;9.980;2023-05-23T12:33:44;16.63;;;4.47;;
5428;SDS011;2737;52.386;9.980;2023-05-23T12:36:13;13.10;;;3.97;;
5428;SDS011;2737;52.386;9.980;2023-05-23T12:38:41;22.73;;;4.40;;
5428;SDS011;2737;52.386;9.980;2023-05-23T12:41:10;9.50;;;3.80;;
5428;SDS011;2737;52.386;9.980;2023-05-23T12:43:39;14.57;;;3.50;;
5428;SDS011;2737;52.386;9.980;2023-05-23T12:46:06;14.73;;;4.10;;
5428;SDS011;2737;52.386;9.980;2023-05-23T12:48:34;11.00;;;3.63;;
5428;SDS011;2737;52.386;9.980;2023-05-23T12:51:02;11.30;;;3.40;;
5428;SDS011;2737;52.386;9.980;2023-05-23T12:53:29;12.53;;;3.37;;
5428;SDS011;2737;52.386;9.980;2023-05-23T12:55:56;21.67;;;4.87;;
5428;SDS011;2737;52.386;9.980;2023-05-23T12:58:24;20.07;;;4.20;;
5428;SDS011;2737;52.386;9.980;2023-05-23T13:00:52;19.13;;;4.30;;
5428;SDS011;2737;52.386;9.980;2023-05-23T13:03:20;12.47;;;3.77;;
5428;SDS011;2737;52.386;9.980;2023-05-23T13:05:46;13.43;;;3.80;;
5428;SDS011;2737;52.386;9.980;2023-05-23T13:08:14;23.37;;;4.40;;
5428;SDS011;2737;52.386;9.980;2023-05-23T13:10:41;13.67;;;3.47;;
5428;SDS011;2737;52.386;9.980;2023-05-23T13:13:08;14.77;;;4.00;;
5428;SDS011;2737;52.386;9.980;2023-05-23T13:15:35;15.27;;;3.33;;
5428;SDS011;2737;52.386;9.980;2023-05-23T13:18:06;11.40;;;3.20;;
5428;SDS011;2737;52.386;9.980;2023-05-23T13:20:33;16.47;;;4.00;;
5428;SDS011;2737;52.386;9.980;2023-05-23T13:23:01;15.00;;;3.87;;
5428;SDS011;2737;52.386;9.980;2023-05-23T13:25:29;11.30;;;3.27;;
5428;SDS011;2737;52.386;9.980;2023-05-23T13:27:56;8.50;;;3.00;;
5428;SDS011;2737;52.386;9.980;2023-05-23T13:30:25;8.97;;;3.17;;
5428;SDS011;2737;52.386;9.980;2023-05-23T13:32:52;12.07;;;3.20;;
5428;SDS011;2737;52.386;9.980;2023-05-23T13:35:21;21.20;;;3.93;;
5428;SDS011;2737;52.386;9.980;2023-05-23T13:37:48;13.17;;;3.80;;
5428;SDS011;2737;52.386;9.980;2023-05-23T13:40:16;13.23;;;3.43;;
5428;SDS011;2737;52.386;9.980;2023-05-23T13:42:44;26.90;;;4.17;;
5428;SDS011;2737;52.386;9.980;2023-05-23T13:45:13;8.70;;;3.40;;
5428;SDS011;2737;52.386;9.980;2023-05-23T13:47:40;14.17;;;4.97;;
5428;SDS011;2737;52.386;9.980;2023-05-23T13:50:07;15.83;;;3.50;;
5428;SDS011;2737;52.386;9.980;2023-05-23T13:52:39;18.10;;;3.77;;
5428;SDS011;2737;52.386;9.980;2023-05-23T13:55:07;10.40;;;3.47;;
5428;SDS011;2737;52.386;9.980;2023-05-23T13:57:35;13.47;;;3.27;;
5428;SDS011;2737;52.386;9.980;2023-05-23T14:00:02;14.83;;;3.37;;
5428;SDS011;2737;52.386;9.980;2023-05-23T14:02:30;10.97;;;3.50;;
5428;SDS011;2737;52.386;9.980;2023-05-23T14:04:57;13.77;;;3.07;;
5428;SDS011;2737;52.386;9.980;2023-05-23T14:07:24;15.17;;;3.43;;
5428;SDS011;2737;52.386;9.980;2023-05-23T14:09:52;13.93;;;3.07;;
5428;SDS011;2737;52.386;9.980;2023-05-23T14:12:19;18.80;;;3.33;;
5428;SDS011;2737;52.386;9.980;2023-05-23T14:14:46;11.77;;;3.17;;
5428;SDS011;2737;52.386;9.980;2023-05-23T14:17:13;18.23;;;4.37;;
5428;SDS011;2737;52.386;9.980;2023-05-23T14:19:41;16.37;;;2.93;;
5428;SDS011;2737;52.386;9.980;2023-05-23T14:22:08;13.80;;;3.33;;
5428;SDS011;2737;52.386;9.980;2023-05-23T14:24:36;11.93;;;3.50;;
5428;SDS011;2737;52.386;9.980;2023-05-23T14:27:04;17.30;;;4.20;;
5428;SDS011;2737;52.386;9.980;2023-05-23T14:29:31;12.03;;;4.07;;
5428;SDS011;2737;52.386;9.980;2023-05-23T14:31:58;13.30;;;3.63;;
5428;SDS011;2737;52.386;9.980;2023-05-23T14:34:27;12.97;;;5.20;;
5428;SDS011;2737;52.386;9.980;2023-05-23T14:36:54;18.83;;;3.80;;
5428;SDS011;2737;52.386;9.980;2023-05-23T14:39:21;16.90;;;3.90;;
5428;SDS011;2737;52.386;9.980;2023-05-23T14:41:49;21.17;;;3.50;;
5428;SDS011;2737;52.386;9.980;2023-05-23T14:44:17;12.33;;;3.50;;
5428;SDS011;2737;52.386;9.980;2023-05-23T14:46:44;14.33;;;3.53;;
5428;SDS011;2737;52.386;9.980;2023-05-23T14:49:13;9.00;;;3.43;;
5428;SDS011;2737;52.386;9.980;2023-05-23T14:51:40;21.93;;;4.20;;
5428;SDS011;2737;52.386;9.980;2023-05-23T14:54:07;12.37;;;4.10;;
5428;SDS011;2737;52.386;9.980;2023-05-23T14:56:34;22.00;;;4.13;;
5428;SDS011;2737;52.386;9.980;2023-05-23T14:59:03;7.93;;;2.77;;
5428;SDS011;2737;52.386;9.980;2023-05-23T15:01:32;10.17;;;2.80;;
5428;SDS011;2737;52.386;9.980;2023-05-23T15:03:59;21.47;;;3.20;;